sensor_id;sensor_type;location;lat;lon;timestamp;P1;durP1;ratioP1;P2;durP2;ratioP2
67867;SDS011;54672;46.096;14.470;2024-03-25T00:01:07;4.20;;;2.58;;
67867;SDS011;54672;46.096;14.470;2024-03-25T00:03:33;8.30;;;2.78;;
67867;SDS011;54672;46.096;14.470;2024-03-25T00:05:58;7.40;;;2.67;;
67867;SDS011;54672;46.096;14.470;2024-03-25T00:08:24;6.90;;;2.40;;
67867;SDS011;54672;46.096;14.470;2024-03-25T00:10:50;6.55;;;2.50;;
67867;SDS011;54672;46.096;14.470;2024-03-25T00:13:15;6.28;;;2.55;;
67867;SDS011;54672;46.096;14.470;2024-03-25T00:15:40;6.53;;;2.80;;
67867;SDS011;54672;46.096;14.470;2024-03-25T00:18:06;6.47;;;2.65;;
67867;SDS011;54672;46.096;14.470;2024-03-25T00:20:32;9.65;;;3.63;;
67867;SDS011;54672;46.096;14.470;2024-03-25T00:22:57;6.38;;;3.08;;
67867;SDS011;54672;46.096;14.470;2024-03-25T00:25:23;6.95;;;2.97;;
67867;SDS011;54672;46.096;14.470;2024-03-25T00:27:48;5.82;;;2.60;;
67867;SDS011;54672;46.096;14.470;2024-03-25T00:30:14;6.00;;;2.70;;
67867;SDS011;54672;46.096;14.470;2024-03-25T00:32:39;5.57;;;2.92;;
67867;SDS011;54672;46.096;14.470;2024-03-25T00:35:08;6.35;;;2.92;;
67867;SDS011;54672;46.096;14.470;2024-03-25T00:37:33;7.50;;;3.28;;
67867;SDS011;54672;46.096;14.470;2024-03-25T00:39:59;9.35;;;3.35;;
67867;SDS011;54672;46.096;14.470;2024-03-25T00:42:25;5.30;;;2.60;;
67867;SDS011;54672;46.096;14.470;2024-03-25T00:44:50;5.38;;;2.30;;
67867;SDS011;54672;46.096;14.470;2024-03-25T00:47:16;4.20;;;1.85;;
67867;SDS011;54672;46.096;14.470;2024-03-25T00:49:41;7.05;;;2.33;;
67867;SDS011;54672;46.096;14.470;2024-03-25T00:52:07;5.63;;;2.63;;
67867;SDS011;54672;46.096;14.470;2024-03-25T00:54:32;5.63;;;2.75;;
67867;SDS011;54672;46.096;14.470;2024-03-25T00:56:58;5.88;;;2.38;;
67867;SDS011;54672;46.096;14.470;2024-03-25T00:59:23;6.13;;;2.63;;
67867;SDS011;54672;46.096;14.470;2024-03-25T01:01:49;7.40;;;2.28;;
67867;SDS011;54672;46.096;14.470;2024-03-25T01:04:15;4.50;;;2.08;;
67867;SDS011;54672;46.096;14.470;2024-03-25T01:06:41;5.50;;;2.40;;
67867;SDS011;54672;46.096;14.470;2024-03-25T01:09:06;6.70;;;2.67;;
67867;SDS011;54672;46.096;14.470;2024-03-25T01:11:32;5.95;;;2.75;;
67867;SDS011;54672;46.096;14.470;2024-03-25T01:13:58;5.93;;;2.17;;
67867;SDS011;54672;46.096;14.470;2024-03-25T01:16:24;6.95;;;2.78;;
67867;SDS011;54672;46.096;14.470;2024-03-25T01:18:49;7.57;;;2.83;;
67867;SDS011;54672;46.096;14.470;2024-03-25T01:21:15;5.75;;;2.80;;
67867;SDS011;54672;46.096;14.470;2024-03-25T01:23:40;6.35;;;3.30;;
67867;SDS011;54672;46.096;14.470;2024-03-25T01:26:06;4.57;;;2.35;;
67867;SDS011;54672;46.096;14.470;2024-03-25T01:28:32;4.22;;;2.28;;
67867;SDS011;54672;46.096;14.470;2024-03-25T01:30:57;5.53;;;2.58;;
67867;SDS011;54672;46.096;14.470;2024-03-25T01:33:23;7.75;;;2.60;;
67867;SDS011;54672;46.096;14.470;2024-03-25T01:35:48;5.60;;;2.08;;
67867;SDS011;54672;46.096;14.470;2024-03-25T01:38:14;5.50;;;1.98;;
67867;SDS011;54672;46.096;14.470;2024-03-25T01:40:39;3.03;;;1.85;;
67867;SDS011;54672;46.096;14.470;2024-03-25T01:43:05;5.82;;;2.30;;
67867;SDS011;54672;46.096;14.470;2024-03-25T01:45:34;3.95;;;2.08;;
67867;SDS011;54672;46.096;14.470;2024-03-25T01:48:07;5.75;;;2.45;;
67867;SDS011;54672;46.096;14.470;2024-03-25T01:50:35;4.45;;;1.65;;
67867;SDS011;54672;46.096;14.470;2024-03-25T01:53:03;5.70;;;2.33;;
67867;SDS011;54672;46.096;14.470;2024-03-25T01:55:29;3.35;;;1.83;;
67867;SDS011;54672;46.096;14.470;2024-03-25T01:57:57;4.80;;;1.77;;
67867;SDS011;54672;46.096;14.470;2024-03-25T02:00:22;6.32;;;1.90;;
67867;SDS011;54672;46.096;14.470;2024-03-25T02:02:50;3.60;;;1.85;;
67867;SDS011;54672;46.096;14.470;2024-03-25T02:05:17;4.70;;;2.03;;
67867;SDS011;54672;46.096;14.470;2024-03-25T02:07:43;4.78;;;2.33;;
67867;SDS011;54672;46.096;14.470;2024-03-25T02:10:10;5.35;;;2.03;;
67867;SDS011;54672;46.096;14.470;2024-03-25T02:12:40;4.57;;;1.80;;
67867;SDS011;54672;46.096;14.470;2024-03-25T02:15:09;6.90;;;2.83;;
67867;SDS011;54672;46.096;14.470;2024-03-25T02:17:35;6.55;;;2.72;;
67867;SDS011;54672;46.096;14.470;2024-03-25T02:20:02;11.60;;;3.92;;
67867;SDS011;54672;46.096;14.470;2024-03-25T02:22:28;9.02;;;4.00;;
67867;SDS011;54672;46.096;14.470;2024-03-25T02:24:54;8.70;;;3.13;;
67867;SDS011;54672;46.096;14.470;2024-03-25T02:27:22;4.90;;;2.53;;
67867;SDS011;54672;46.096;14.470;2024-03-25T02:29:48;3.35;;;1.90;;
67867;SDS011;54672;46.096;14.470;2024-03-25T02:32:13;4.60;;;1.83;;
67867;SDS011;54672;46.096;14.470;2024-03-25T02:34:39;6.78;;;2.85;;
67867;SDS011;54672;46.096;14.470;2024-03-25T02:37:09;3.35;;;1.85;;
67867;SDS011;54672;46.096;14.470;2024-03-25T02:39:34;4.75;;;1.95;;
67867;SDS011;54672;46.096;14.470;2024-03-25T02:42:01;3.97;;;2.15;;
67867;SDS011;54672;46.096;14.470;2024-03-25T02:44:26;8.02;;;2.45;;
67867;SDS011;54672;46.096;14.470;2024-03-25T02:46:52;3.78;;;1.77;;
67867;SDS011;54672;46.096;14.470;2024-03-25T02:49:17;3.97;;;2.00;;
67867;SDS011;54672;46.096;14.470;2024-03-25T02:51:43;5.10;;;2.10;;
67867;SDS011;54672;46.096;14.470;2024-03-25T02:54:11;4.35;;;2.00;;
67867;SDS011;54672;46.096;14.470;2024-03-25T02:56:37;4.45;;;2.40;;
67867;SDS011;54672;46.096;14.470;2024-03-25T02:59:02;7.43;;;2.45;;
67867;SDS011;54672;46.096;14.470;2024-03-25T03:01:28;3.58;;;1.92;;
67867;SDS011;54672;46.096;14.470;2024-03-25T03:03:53;4.78;;;2.38;;
67867;SDS011;54672;46.096;14.470;2024-03-25T03:06:18;4.53;;;2.13;;
67867;SDS011;54672;46.096;14.470;2024-03-25T03:08:44;7.10;;;2.08;;
67867;SDS011;54672;46.096;14.470;2024-03-25T03:11:10;4.22;;;2.22;;
67867;SDS011;54672;46.096;14.470;2024-03-25T03:13:35;5.07;;;1.67;;
67867;SDS011;54672;46.096;14.470;2024-03-25T03:16:01;4.78;;;2.15;;
67867;SDS011;54672;46.096;14.470;2024-03-25T03:18:27;3.25;;;2.10;;
67867;SDS011;54672;46.096;14.470;2024-03-25T03:20:52;3.88;;;2.03;;
67867;SDS011;54672;46.096;14.470;2024-03-25T03:23:21;3.00;;;1.73;;
67867;SDS011;54672;46.096;14.470;2024-03-25T03:25:47;3.80;;;1.88;;
67867;SDS011;54672;46.096;14.470;2024-03-25T03:28:12;3.47;;;2.08;;
67867;SDS011;54672;46.096;14.470;2024-03-25T03:30:37;9.48;;;2.15;;
67867;SDS011;54672;46.096;14.470;2024-03-25T03:33:03;4.72;;;2.05;;
67867;SDS011;54672;46.096;14.470;2024-03-25T03:35:29;4.93;;;2.10;;
67867;SDS011;54672;46.096;14.470;2024-03-25T03:37:54;4.60;;;2.22;;
67867;SDS011;54672;46.096;14.470;2024-03-25T03:40:19;5.15;;;2.10;;
67867;SDS011;54672;46.096;14.470;2024-03-25T03:42:45;4.78;;;1.90;;
67867;SDS011;54672;46.096;14.470;2024-03-25T03:45:10;5.88;;;2.30;;
67867;SDS011;54672;46.096;14.470;2024-03-25T03:47:37;5.57;;;2.50;;
67867;SDS011;54672;46.096;14.470;2024-03-25T03:50:03;8.27;;;3.13;;
67867;SDS011;54672;46.096;14.470;2024-03-25T03:52:29;4.80;;;2.53;;
67867;SDS011;54672;46.096;14.470;2024-03-25T03:54:54;6.80;;;2.72;;
67867;SDS011;54672;46.096;14.470;2024-03-25T03:57:19;7.28;;;2.22;;
67867;SDS011;54672;46.096;14.470;2024-03-25T03:59:45;6.82;;;2.63;;
67867;SDS011;54672;46.096;14.470;2024-03-25T04:02:10;3.60;;;1.98;;
67867;SDS011;54672;46.096;14.470;2024-03-25T04:04:36;3.03;;;1.90;;
67867;SDS011;54672;46.096;14.470;2024-03-25T04:07:01;6.88;;;2.47;;
67867;SDS011;54672;46.096;14.470;2024-03-25T04:09:27;5.78;;;2.42;;
67867;SDS011;54672;46.096;14.470;2024-03-25T04:11:54;5.10;;;2.08;;
67867;SDS011;54672;46.096;14.470;2024-03-25T04:14:20;4.78;;;2.33;;
67867;SDS011;54672;46.096;14.470;2024-03-25T04:16:45;5.22;;;2.38;;
67867;SDS011;54672;46.096;14.470;2024-03-25T04:19:12;3.78;;;2.22;;
67867;SDS011;54672;46.096;14.470;2024-03-25T04:21:38;4.40;;;2.20;;
67867;SDS011;54672;46.096;14.470;2024-03-25T04:24:04;6.00;;;2.90;;
67867;SDS011;54672;46.096;14.470;2024-03-25T04:26:31;5.00;;;2.83;;
67867;SDS011;54672;46.096;14.470;2024-03-25T04:28:56;5.38;;;2.25;;
67867;SDS011;54672;46.096;14.470;2024-03-25T04:31:22;4.53;;;2.10;;
67867;SDS011;54672;46.096;14.470;2024-03-25T04:33:48;6.63;;;2.53;;
67867;SDS011;54672;46.096;14.470;2024-03-25T04:36:13;7.75;;;3.28;;
67867;SDS011;54672;46.096;14.470;2024-03-25T04:38:39;8.35;;;3.13;;
67867;SDS011;54672;46.096;14.470;2024-03-25T04:41:04;6.28;;;2.42;;
67867;SDS011;54672;46.096;14.470;2024-03-25T04:43:30;5.53;;;2.35;;
67867;SDS011;54672;46.096;14.470;2024-03-25T04:45:55;4.25;;;2.38;;
67867;SDS011;54672;46.096;14.470;2024-03-25T04:48:21;5.78;;;2.40;;
67867;SDS011;54672;46.096;14.470;2024-03-25T04:50:46;4.78;;;1.98;;
67867;SDS011;54672;46.096;14.470;2024-03-25T04:53:12;5.97;;;2.40;;
67867;SDS011;54672;46.096;14.470;2024-03-25T04:55:37;4.75;;;2.88;;
67867;SDS011;54672;46.096;14.470;2024-03-25T04:58:03;4.65;;;2.38;;
67867;SDS011;54672;46.096;14.470;2024-03-25T05:00:28;4.47;;;2.35;;
67867;SDS011;54672;46.096;14.470;2024-03-25T05:02:54;6.18;;;2.30;;
67867;SDS011;54672;46.096;14.470;2024-03-25T05:05:20;7.07;;;2.60;;
67867;SDS011;54672;46.096;14.470;2024-03-25T05:07:46;10.77;;;3.72;;
67867;SDS011;54672;46.096;14.470;2024-03-25T05:10:11;8.43;;;3.42;;
67867;SDS011;54672;46.096;14.470;2024-03-25T05:12:37;6.05;;;3.50;;
67867;SDS011;54672;46.096;14.470;2024-03-25T05:15:04;9.50;;;4.75;;
67867;SDS011;54672;46.096;14.470;2024-03-25T05:17:31;7.43;;;4.18;;
67867;SDS011;54672;46.096;14.470;2024-03-25T05:19:56;7.85;;;4.03;;
67867;SDS011;54672;46.096;14.470;2024-03-25T05:22:21;7.78;;;3.58;;
67867;SDS011;54672;46.096;14.470;2024-03-25T05:24:47;8.25;;;3.30;;
67867;SDS011;54672;46.096;14.470;2024-03-25T05:27:12;5.38;;;3.17;;
67867;SDS011;54672;46.096;14.470;2024-03-25T05:29:38;6.53;;;3.15;;
67867;SDS011;54672;46.096;14.470;2024-03-25T05:32:03;5.38;;;2.80;;
67867;SDS011;54672;46.096;14.470;2024-03-25T05:34:29;4.15;;;2.58;;
67867;SDS011;54672;46.096;14.470;2024-03-25T05:36:56;5.13;;;2.70;;
67867;SDS011;54672;46.096;14.470;2024-03-25T05:39:22;6.18;;;2.53;;
67867;SDS011;54672;46.096;14.470;2024-03-25T05:41:48;5.95;;;2.70;;
67867;SDS011;54672;46.096;14.470;2024-03-25T05:44:13;3.63;;;2.25;;
67867;SDS011;54672;46.096;14.470;2024-03-25T05:46:39;7.90;;;2.75;;
67867;SDS011;54672;46.096;14.470;2024-03-25T05:49:06;7.15;;;2.70;;
67867;SDS011;54672;46.096;14.470;2024-03-25T05:51:31;14.63;;;2.60;;
67867;SDS011;54672;46.096;14.470;2024-03-25T05:54:00;5.68;;;2.47;;
67867;SDS011;54672;46.096;14.470;2024-03-25T05:56:26;4.30;;;2.35;;
67867;SDS011;54672;46.096;14.470;2024-03-25T05:58:58;4.75;;;2.53;;
67867;SDS011;54672;46.096;14.470;2024-03-25T06:01:24;7.15;;;2.63;;
67867;SDS011;54672;46.096;14.470;2024-03-25T06:03:50;4.63;;;2.70;;
67867;SDS011;54672;46.096;14.470;2024-03-25T06:06:15;7.45;;;3.22;;
67867;SDS011;54672;46.096;14.470;2024-03-25T06:08:41;8.73;;;3.38;;
67867;SDS011;54672;46.096;14.470;2024-03-25T06:11:06;7.07;;;3.85;;
67867;SDS011;54672;46.096;14.470;2024-03-25T06:13:31;6.00;;;3.38;;
67867;SDS011;54672;46.096;14.470;2024-03-25T06:15:58;6.60;;;3.17;;
67867;SDS011;54672;46.096;14.470;2024-03-25T06:18:23;5.53;;;3.20;;
67867;SDS011;54672;46.096;14.470;2024-03-25T06:20:49;5.40;;;3.10;;
67867;SDS011;54672;46.096;14.470;2024-03-25T06:23:24;5.85;;;2.83;;
67867;SDS011;54672;46.096;14.470;2024-03-25T06:25:51;8.52;;;2.80;;
67867;SDS011;54672;46.096;14.470;2024-03-25T06:28:17;5.97;;;2.85;;
67867;SDS011;54672;46.096;14.470;2024-03-25T06:30:44;8.38;;;4.30;;
67867;SDS011;54672;46.096;14.470;2024-03-25T06:33:31;8.85;;;4.68;;
67867;SDS011;54672;46.096;14.470;2024-03-25T06:36:16;8.10;;;4.85;;
67867;SDS011;54672;46.096;14.470;2024-03-25T06:38:42;12.13;;;4.63;;
67867;SDS011;54672;46.096;14.470;2024-03-25T06:41:07;10.98;;;4.72;;
67867;SDS011;54672;46.096;14.470;2024-03-25T06:43:34;8.63;;;4.78;;
67867;SDS011;54672;46.096;14.470;2024-03-25T06:45:59;8.82;;;4.43;;
67867;SDS011;54672;46.096;14.470;2024-03-25T06:48:25;11.50;;;5.53;;
67867;SDS011;54672;46.096;14.470;2024-03-25T06:50:57;8.73;;;4.47;;
67867;SDS011;54672;46.096;14.470;2024-03-25T06:53:24;15.27;;;4.90;;
67867;SDS011;54672;46.096;14.470;2024-03-25T06:55:57;7.88;;;4.63;;
67867;SDS011;54672;46.096;14.470;2024-03-25T06:58:24;11.20;;;4.43;;
67867;SDS011;54672;46.096;14.470;2024-03-25T07:00:51;7.43;;;4.03;;
67867;SDS011;54672;46.096;14.470;2024-03-25T07:03:17;9.73;;;5.15;;
67867;SDS011;54672;46.096;14.470;2024-03-25T07:05:44;10.05;;;4.35;;
67867;SDS011;54672;46.096;14.470;2024-03-25T07:08:11;9.65;;;4.40;;
67867;SDS011;54672;46.096;14.470;2024-03-25T07:10:37;8.88;;;4.78;;
67867;SDS011;54672;46.096;14.470;2024-03-25T07:13:02;8.65;;;4.60;;
67867;SDS011;54672;46.096;14.470;2024-03-25T07:15:28;9.70;;;4.65;;
67867;SDS011;54672;46.096;14.470;2024-03-25T07:17:54;10.25;;;4.75;;
67867;SDS011;54672;46.096;14.470;2024-03-25T07:20:19;9.25;;;4.97;;
67867;SDS011;54672;46.096;14.470;2024-03-25T07:22:47;11.68;;;5.80;;
67867;SDS011;54672;46.096;14.470;2024-03-25T07:25:13;11.57;;;5.78;;
67867;SDS011;54672;46.096;14.470;2024-03-25T07:27:39;14.82;;;6.07;;
67867;SDS011;54672;46.096;14.470;2024-03-25T07:30:06;11.82;;;5.72;;
67867;SDS011;54672;46.096;14.470;2024-03-25T07:32:32;12.25;;;5.68;;
67867;SDS011;54672;46.096;14.470;2024-03-25T07:34:59;9.70;;;5.35;;
67867;SDS011;54672;46.096;14.470;2024-03-25T07:37:25;11.60;;;5.68;;
67867;SDS011;54672;46.096;14.470;2024-03-25T07:39:50;12.35;;;5.53;;
67867;SDS011;54672;46.096;14.470;2024-03-25T07:42:16;11.90;;;5.93;;
67867;SDS011;54672;46.096;14.470;2024-03-25T07:44:41;13.30;;;6.25;;
67867;SDS011;54672;46.096;14.470;2024-03-25T07:47:07;11.52;;;5.55;;
67867;SDS011;54672;46.096;14.470;2024-03-25T07:49:33;9.20;;;5.53;;
67867;SDS011;54672;46.096;14.470;2024-03-25T07:52:02;11.63;;;5.30;;
67867;SDS011;54672;46.096;14.470;2024-03-25T07:54:28;8.98;;;4.97;;
67867;SDS011;54672;46.096;14.470;2024-03-25T07:56:54;12.20;;;5.47;;
67867;SDS011;54672;46.096;14.470;2024-03-25T07:59:19;10.98;;;5.30;;
67867;SDS011;54672;46.096;14.470;2024-03-25T08:01:45;11.02;;;5.30;;
67867;SDS011;54672;46.096;14.470;2024-03-25T08:04:10;12.20;;;5.47;;
67867;SDS011;54672;46.096;14.470;2024-03-25T08:06:36;7.93;;;4.97;;
67867;SDS011;54672;46.096;14.470;2024-03-25T08:09:01;11.50;;;5.35;;
67867;SDS011;54672;46.096;14.470;2024-03-25T08:11:30;10.02;;;5.28;;
67867;SDS011;54672;46.096;14.470;2024-03-25T08:13:56;11.48;;;5.53;;
67867;SDS011;54672;46.096;14.470;2024-03-25T08:16:21;11.10;;;5.55;;
67867;SDS011;54672;46.096;14.470;2024-03-25T08:18:47;10.50;;;5.22;;
67867;SDS011;54672;46.096;14.470;2024-03-25T08:21:12;10.30;;;5.93;;
67867;SDS011;54672;46.096;14.470;2024-03-25T08:23:38;10.07;;;5.50;;
67867;SDS011;54672;46.096;14.470;2024-03-25T08:26:03;12.38;;;6.50;;
67867;SDS011;54672;46.096;14.470;2024-03-25T08:28:29;8.50;;;4.82;;
67867;SDS011;54672;46.096;14.470;2024-03-25T08:30:54;9.40;;;4.90;;
67867;SDS011;54672;46.096;14.470;2024-03-25T08:33:20;10.32;;;5.15;;
67867;SDS011;54672;46.096;14.470;2024-03-25T08:35:45;10.02;;;5.95;;
67867;SDS011;54672;46.096;14.470;2024-03-25T08:38:11;14.05;;;5.95;;
67867;SDS011;54672;46.096;14.470;2024-03-25T08:40:36;12.90;;;6.72;;
67867;SDS011;54672;46.096;14.470;2024-03-25T08:43:02;13.25;;;6.80;;
67867;SDS011;54672;46.096;14.470;2024-03-25T08:45:27;12.00;;;6.35;;
67867;SDS011;54672;46.096;14.470;2024-03-25T08:47:53;9.52;;;5.18;;
67867;SDS011;54672;46.096;14.470;2024-03-25T08:50:18;9.73;;;5.45;;
67867;SDS011;54672;46.096;14.470;2024-03-25T08:52:44;12.15;;;5.38;;
67867;SDS011;54672;46.096;14.470;2024-03-25T08:55:09;11.32;;;6.30;;
67867;SDS011;54672;46.096;14.470;2024-03-25T08:57:35;10.38;;;5.10;;
67867;SDS011;54672;46.096;14.470;2024-03-25T09:00:00;15.10;;;5.38;;
67867;SDS011;54672;46.096;14.470;2024-03-25T09:02:26;13.15;;;6.38;;
67867;SDS011;54672;46.096;14.470;2024-03-25T09:04:51;12.40;;;6.10;;
67867;SDS011;54672;46.096;14.470;2024-03-25T09:07:17;12.48;;;6.15;;
67867;SDS011;54672;46.096;14.470;2024-03-25T09:09:43;12.50;;;6.28;;
67867;SDS011;54672;46.096;14.470;2024-03-25T09:12:27;14.50;;;6.93;;
67867;SDS011;54672;46.096;14.470;2024-03-25T09:14:52;15.02;;;6.60;;
67867;SDS011;54672;46.096;14.470;2024-03-25T09:17:18;11.35;;;6.00;;
67867;SDS011;54672;46.096;14.470;2024-03-25T09:19:44;11.73;;;6.10;;
67867;SDS011;54672;46.096;14.470;2024-03-25T09:22:09;13.57;;;5.35;;
67867;SDS011;54672;46.096;14.470;2024-03-25T09:24:35;13.50;;;6.28;;
67867;SDS011;54672;46.096;14.470;2024-03-25T09:27:00;12.45;;;5.43;;
67867;SDS011;54672;46.096;14.470;2024-03-25T09:29:26;10.27;;;5.10;;
67867;SDS011;54672;46.096;14.470;2024-03-25T09:31:51;11.95;;;5.63;;
67867;SDS011;54672;46.096;14.470;2024-03-25T09:34:16;9.70;;;4.53;;
67867;SDS011;54672;46.096;14.470;2024-03-25T09:36:42;9.68;;;5.60;;
67867;SDS011;54672;46.096;14.470;2024-03-25T09:39:07;9.77;;;5.07;;
67867;SDS011;54672;46.096;14.470;2024-03-25T09:41:35;11.18;;;4.90;;
67867;SDS011;54672;46.096;14.470;2024-03-25T09:44:01;9.73;;;5.38;;
67867;SDS011;54672;46.096;14.470;2024-03-25T09:46:30;9.50;;;5.03;;
67867;SDS011;54672;46.096;14.470;2024-03-25T09:48:56;10.80;;;4.32;;
67867;SDS011;54672;46.096;14.470;2024-03-25T09:51:21;8.80;;;4.53;;
67867;SDS011;54672;46.096;14.470;2024-03-25T09:53:47;12.13;;;4.50;;
67867;SDS011;54672;46.096;14.470;2024-03-25T09:56:13;8.90;;;3.60;;
67867;SDS011;54672;46.096;14.470;2024-03-25T09:58:39;6.75;;;3.17;;
67867;SDS011;54672;46.096;14.470;2024-03-25T10:01:05;8.02;;;4.03;;
67867;SDS011;54672;46.096;14.470;2024-03-25T10:03:31;7.25;;;3.53;;
67867;SDS011;54672;46.096;14.470;2024-03-25T10:05:56;9.18;;;3.53;;
67867;SDS011;54672;46.096;14.470;2024-03-25T10:08:22;7.43;;;4.07;;
67867;SDS011;54672;46.096;14.470;2024-03-25T10:10:48;5.22;;;2.95;;
67867;SDS011;54672;46.096;14.470;2024-03-25T10:13:15;6.68;;;3.28;;
67867;SDS011;54672;46.096;14.470;2024-03-25T10:15:41;5.05;;;2.47;;
67867;SDS011;54672;46.096;14.470;2024-03-25T10:18:07;7.13;;;2.80;;
67867;SDS011;54672;46.096;14.470;2024-03-25T10:20:33;5.40;;;2.95;;
67867;SDS011;54672;46.096;14.470;2024-03-25T10:22:59;5.03;;;2.60;;
67867;SDS011;54672;46.096;14.470;2024-03-25T10:25:28;5.32;;;2.60;;
67867;SDS011;54672;46.096;14.470;2024-03-25T10:27:58;3.75;;;2.15;;
67867;SDS011;54672;46.096;14.470;2024-03-25T10:30:25;4.57;;;2.58;;
67867;SDS011;54672;46.096;14.470;2024-03-25T10:33:12;4.10;;;2.33;;
67867;SDS011;54672;46.096;14.470;2024-03-25T10:35:38;2.92;;;1.80;;
67867;SDS011;54672;46.096;14.470;2024-03-25T10:38:05;5.25;;;2.05;;
67867;SDS011;54672;46.096;14.470;2024-03-25T10:40:36;5.35;;;2.28;;
67867;SDS011;54672;46.096;14.470;2024-03-25T10:43:04;2.63;;;1.50;;
67867;SDS011;54672;46.096;14.470;2024-03-25T10:45:34;4.40;;;1.77;;
67867;SDS011;54672;46.096;14.470;2024-03-25T10:48:07;4.00;;;1.50;;
67867;SDS011;54672;46.096;14.470;2024-03-25T10:50:39;3.08;;;1.60;;
67867;SDS011;54672;46.096;14.470;2024-03-25T10:53:06;2.53;;;1.27;;
67867;SDS011;54672;46.096;14.470;2024-03-25T10:55:35;2.00;;;1.10;;
67867;SDS011;54672;46.096;14.470;2024-03-25T10:58:01;2.70;;;1.20;;
67867;SDS011;54672;46.096;14.470;2024-03-25T11:00:29;2.50;;;1.25;;
67867;SDS011;54672;46.096;14.470;2024-03-25T11:02:55;1.88;;;1.13;;
67867;SDS011;54672;46.096;14.470;2024-03-25T11:05:21;4.35;;;1.15;;
67867;SDS011;54672;46.096;14.470;2024-03-25T11:07:47;2.47;;;1.38;;
67867;SDS011;54672;46.096;14.470;2024-03-25T11:10:13;1.67;;;1.00;;
67867;SDS011;54672;46.096;14.470;2024-03-25T11:12:40;1.33;;;0.82;;
67867;SDS011;54672;46.096;14.470;2024-03-25T11:15:07;0.70;;;0.55;;
67867;SDS011;54672;46.096;14.470;2024-03-25T11:17:36;1.70;;;0.90;;
67867;SDS011;54672;46.096;14.470;2024-03-25T11:20:08;1.17;;;0.70;;
67867;SDS011;54672;46.096;14.470;2024-03-25T11:22:35;1.67;;;0.88;;
67867;SDS011;54672;46.096;14.470;2024-03-25T11:25:07;2.17;;;1.00;;
67867;SDS011;54672;46.096;14.470;2024-03-25T11:27:36;1.75;;;0.90;;
67867;SDS011;54672;46.096;14.470;2024-03-25T11:30:02;1.98;;;1.10;;
67867;SDS011;54672;46.096;14.470;2024-03-25T11:32:40;2.60;;;1.20;;
67867;SDS011;54672;46.096;14.470;2024-03-25T11:35:26;1.52;;;0.90;;
67867;SDS011;54672;46.096;14.470;2024-03-25T11:37:53;2.10;;;1.20;;
67867;SDS011;54672;46.096;14.470;2024-03-25T11:40:18;3.28;;;1.00;;
67867;SDS011;54672;46.096;14.470;2024-03-25T11:42:44;1.67;;;1.00;;
67867;SDS011;54672;46.096;14.470;2024-03-25T11:45:16;2.63;;;1.00;;
67867;SDS011;54672;46.096;14.470;2024-03-25T11:47:45;1.67;;;0.95;;
67867;SDS011;54672;46.096;14.470;2024-03-25T11:50:12;2.40;;;1.20;;
67867;SDS011;54672;46.096;14.470;2024-03-25T11:52:39;2.10;;;1.10;;
67867;SDS011;54672;46.096;14.470;2024-03-25T11:55:06;2.13;;;1.38;;
67867;SDS011;54672;46.096;14.470;2024-03-25T11:57:33;1.92;;;0.90;;
67867;SDS011;54672;46.096;14.470;2024-03-25T12:00:00;1.50;;;0.70;;
67867;SDS011;54672;46.096;14.470;2024-03-25T12:02:27;1.50;;;0.73;;
67867;SDS011;54672;46.096;14.470;2024-03-25T12:04:53;1.65;;;0.90;;
67867;SDS011;54672;46.096;14.470;2024-03-25T12:07:18;1.52;;;0.77;;
67867;SDS011;54672;46.096;14.470;2024-03-25T12:09:47;1.27;;;0.70;;
67867;SDS011;54672;46.096;14.470;2024-03-25T12:12:32;2.95;;;0.82;;
67867;SDS011;54672;46.096;14.470;2024-03-25T12:14:58;2.00;;;0.98;;
67867;SDS011;54672;46.096;14.470;2024-03-25T12:17:24;1.40;;;0.77;;
67867;SDS011;54672;46.096;14.470;2024-03-25T12:20:02;1.25;;;0.65;;
67867;SDS011;54672;46.096;14.470;2024-03-25T12:22:32;1.23;;;0.70;;
67867;SDS011;54672;46.096;14.470;2024-03-25T12:24:59;0.82;;;0.70;;
67867;SDS011;54672;46.096;14.470;2024-03-25T12:27:25;1.60;;;0.90;;
67867;SDS011;54672;46.096;14.470;2024-03-25T12:32:38;1.05;;;0.60;;
67867;SDS011;54672;46.096;14.470;2024-03-25T12:35:09;0.63;;;0.55;;
67867;SDS011;54672;46.096;14.470;2024-03-25T12:37:43;1.15;;;0.73;;
67867;SDS011;54672;46.096;14.470;2024-03-25T12:40:12;0.98;;;0.70;;
67867;SDS011;54672;46.096;14.470;2024-03-25T12:42:51;1.02;;;0.75;;
67867;SDS011;54672;46.096;14.470;2024-03-25T12:45:18;1.02;;;0.60;;
67867;SDS011;54672;46.096;14.470;2024-03-25T12:47:44;1.30;;;0.70;;
67867;SDS011;54672;46.096;14.470;2024-03-25T12:50:09;1.05;;;0.60;;
67867;SDS011;54672;46.096;14.470;2024-03-25T12:52:35;1.38;;;0.60;;
67867;SDS011;54672;46.096;14.470;2024-03-25T12:55:01;1.60;;;0.80;;
67867;SDS011;54672;46.096;14.470;2024-03-25T12:57:27;1.05;;;0.70;;
67867;SDS011;54672;46.096;14.470;2024-03-25T12:59:52;1.35;;;0.40;;
67867;SDS011;54672;46.096;14.470;2024-03-25T13:02:17;0.68;;;0.40;;
67867;SDS011;54672;46.096;14.470;2024-03-25T13:04:44;2.00;;;0.90;;
67867;SDS011;54672;46.096;14.470;2024-03-25T13:07:10;2.63;;;0.90;;
67867;SDS011;54672;46.096;14.470;2024-03-25T13:09:35;0.70;;;0.70;;
67867;SDS011;54672;46.096;14.470;2024-03-25T13:12:01;1.05;;;0.50;;
67867;SDS011;54672;46.096;14.470;2024-03-25T13:14:26;0.65;;;0.50;;
67867;SDS011;54672;46.096;14.470;2024-03-25T13:16:52;0.90;;;0.55;;
67867;SDS011;54672;46.096;14.470;2024-03-25T13:19:17;1.33;;;0.50;;
67867;SDS011;54672;46.096;14.470;2024-03-25T13:21:43;1.10;;;0.50;;
67867;SDS011;54672;46.096;14.470;2024-03-25T13:24:09;0.63;;;0.40;;
67867;SDS011;54672;46.096;14.470;2024-03-25T13:26:34;0.70;;;0.50;;
67867;SDS011;54672;46.096;14.470;2024-03-25T13:29:00;1.55;;;0.65;;
67867;SDS011;54672;46.096;14.470;2024-03-25T13:31:25;1.13;;;0.70;;
67867;SDS011;54672;46.096;14.470;2024-03-25T13:33:51;1.30;;;0.60;;
67867;SDS011;54672;46.096;14.470;2024-03-25T13:36:17;1.45;;;0.55;;
67867;SDS011;54672;46.096;14.470;2024-03-25T13:38:43;0.47;;;0.47;;
67867;SDS011;54672;46.096;14.470;2024-03-25T13:41:08;0.60;;;0.60;;
67867;SDS011;54672;46.096;14.470;2024-03-25T13:43:34;1.77;;;0.50;;
67867;SDS011;54672;46.096;14.470;2024-03-25T13:46:00;1.33;;;0.70;;
67867;SDS011;54672;46.096;14.470;2024-03-25T13:48:25;0.75;;;0.50;;
67867;SDS011;54672;46.096;14.470;2024-03-25T13:50:54;1.33;;;0.70;;
67867;SDS011;54672;46.096;14.470;2024-03-25T13:53:20;0.65;;;0.60;;
67867;SDS011;54672;46.096;14.470;2024-03-25T13:55:46;0.90;;;0.60;;
67867;SDS011;54672;46.096;14.470;2024-03-25T13:58:12;0.93;;;0.60;;
67867;SDS011;54672;46.096;14.470;2024-03-25T14:00:37;0.75;;;0.55;;
67867;SDS011;54672;46.096;14.470;2024-03-25T14:03:03;1.50;;;0.80;;
67867;SDS011;54672;46.096;14.470;2024-03-25T14:05:28;1.10;;;0.40;;
67867;SDS011;54672;46.096;14.470;2024-03-25T14:07:54;0.57;;;0.47;;
67867;SDS011;54672;46.096;14.470;2024-03-25T14:10:19;0.60;;;0.50;;
67867;SDS011;54672;46.096;14.470;2024-03-25T14:12:45;0.85;;;0.63;;
67867;SDS011;54672;46.096;14.470;2024-03-25T14:15:10;1.52;;;0.50;;
67867;SDS011;54672;46.096;14.470;2024-03-25T14:17:36;1.08;;;0.60;;
67867;SDS011;54672;46.096;14.470;2024-03-25T14:20:01;0.57;;;0.40;;
67867;SDS011;54672;46.096;14.470;2024-03-25T14:22:31;0.70;;;0.52;;
67867;SDS011;54672;46.096;14.470;2024-03-25T14:24:56;1.08;;;0.60;;
67867;SDS011;54672;46.096;14.470;2024-03-25T14:27:23;0.52;;;0.50;;
67867;SDS011;54672;46.096;14.470;2024-03-25T14:29:49;0.77;;;0.60;;
67867;SDS011;54672;46.096;14.470;2024-03-25T14:32:14;0.32;;;0.32;;